createdAt,value
2023-05-19T00:01:49.817Z,8.67
2023-05-19T00:04:16.980Z,8.65
2023-05-19T00:06:48.306Z,8.64
2023-05-19T00:09:14.998Z,8.59
2023-05-19T00:11:41.682Z,8.57
2023-05-19T00:14:09.881Z,8.54
2023-05-19T00:16:38.018Z,8.50
2023-05-19T00:19:06.446Z,8.46
2023-05-19T00:21:33.059Z,8.44
2023-05-19T00:23:59.609Z,8.40
2023-05-19T00:26:27.446Z,8.37
2023-05-19T00:28:59.448Z,8.32
2023-05-19T00:31:26.106Z,8.29
2023-05-19T00:33:52.600Z,8.25
2023-05-19T00:36:19.042Z,8.22
2023-05-19T00:38:45.563Z,8.19
2023-05-19T00:41:12.246Z,8.15
2023-05-19T00:43:38.945Z,8.11
2023-05-19T00:46:07.151Z,8.09
2023-05-19T00:48:33.750Z,8.05
2023-05-19T00:51:04.862Z,8.02
2023-05-19T00:53:33.366Z,7.99
2023-05-19T00:56:00.848Z,7.95
2023-05-19T00:58:30.250Z,7.91
2023-05-19T01:01:03.831Z,7.90
2023-05-19T01:03:35.964Z,7.83
2023-05-19T01:06:05.916Z,7.83
2023-05-19T01:08:39.124Z,7.79
2023-05-19T01:11:06.945Z,7.76
2023-05-19T01:13:34.932Z,7.73
2023-05-19T01:16:12.648Z,7.69
2023-05-19T01:19:15.338Z,7.66
2023-05-19T01:22:12.969Z,7.62
2023-05-19T01:25:17.830Z,7.59
2023-05-19T01:27:59.585Z,7.58
2023-05-19T01:30:42.616Z,7.56
2023-05-19T01:33:14.206Z,7.53
2023-05-19T01:35:43.019Z,7.49
2023-05-19T01:38:11.073Z,7.47
2023-05-19T01:40:41.834Z,7.45
2023-05-19T01:43:12.449Z,7.42
2023-05-19T01:45:40.192Z,7.40
2023-05-19T01:48:09.942Z,7.37
2023-05-19T01:50:38.642Z,7.35
2023-05-19T01:53:05.490Z,7.30
2023-05-19T01:55:41.038Z,7.28
2023-05-19T01:58:43.957Z,7.26
2023-05-19T02:01:28.860Z,7.22
2023-05-19T02:04:25.381Z,7.18
2023-05-19T02:07:13.479Z,7.14
2023-05-19T02:09:56.147Z,7.11
2023-05-19T02:12:32.536Z,7.09
2023-05-19T02:15:19.400Z,7.06
2023-05-19T02:17:48.445Z,7.02
2023-05-19T02:20:16.139Z,6.99
2023-05-19T02:22:42.962Z,6.99
2023-05-19T02:25:10.606Z,6.95
2023-05-19T02:27:38.662Z,6.93
2023-05-19T02:30:08.336Z,6.92
2023-05-19T02:32:36.638Z,6.89
2023-05-19T02:35:03.946Z,6.86
2023-05-19T02:37:31.148Z,6.83
2023-05-19T02:39:57.965Z,6.81
2023-05-19T02:42:24.489Z,6.78
2023-05-19T02:44:51.558Z,6.76
2023-05-19T02:47:18.089Z,6.75
2023-05-19T02:49:45.065Z,6.73
2023-05-19T02:52:12.168Z,6.71
2023-05-19T02:54:39.326Z,6.68
2023-05-19T02:57:06.757Z,6.66
2023-05-19T02:59:33.442Z,6.66
2023-05-19T03:02:02.095Z,6.63
2023-05-19T03:04:29.838Z,6.61
2023-05-19T03:06:57.648Z,6.60
2023-05-19T03:09:24.306Z,6.56
2023-05-19T03:11:51.000Z,6.54
2023-05-19T03:14:18.635Z,6.50
2023-05-19T03:16:45.552Z,6.49
2023-05-19T03:19:12.551Z,6.49
2023-05-19T03:21:39.230Z,6.48
2023-05-19T03:24:06.671Z,6.47
2023-05-19T03:26:33.834Z,6.47
2023-05-19T03:29:00.874Z,6.45
2023-05-19T03:31:27.368Z,6.43
2023-05-19T03:33:54.186Z,6.42
2023-05-19T03:36:22.185Z,6.41
2023-05-19T03:38:49.077Z,6.39
2023-05-19T03:41:15.870Z,6.38
2023-05-19T03:43:42.549Z,6.38
2023-05-19T03:46:10.121Z,6.36
2023-05-19T03:49:08.946Z,6.37
2023-05-19T03:52:03.299Z,6.35
2023-05-19T03:54:48.964Z,6.37
2023-05-19T03:57:15.554Z,6.38
2023-05-19T03:59:42.100Z,6.40
2023-05-19T04:02:08.681Z,6.42
2023-05-19T04:04:35.672Z,6.42
2023-05-19T04:07:02.349Z,6.43
2023-05-19T04:09:28.878Z,6.46
2023-05-19T04:11:55.434Z,6.47
2023-05-19T04:14:24.599Z,6.49
2023-05-19T04:16:51.259Z,6.52
2023-05-19T04:19:18.029Z,6.55
2023-05-19T04:21:44.585Z,6.59
2023-05-19T04:24:11.155Z,6.61
2023-05-19T04:26:38.421Z,6.64
2023-05-19T04:29:05.307Z,6.71
2023-05-19T04:31:34.234Z,6.75
2023-05-19T04:34:03.392Z,6.80
2023-05-19T04:36:29.869Z,6.84
2023-05-19T04:39:06.849Z,7.05
2023-05-19T04:41:34.677Z,7.11
2023-05-19T04:44:03.867Z,7.11
2023-05-19T04:46:30.494Z,7.11
2023-05-19T04:48:57.345Z,7.72
2023-05-19T04:51:30.262Z,9.29
2023-05-19T04:53:59.817Z,10.65
2023-05-19T04:56:27.318Z,12.13
2023-05-19T04:58:53.942Z,13.42
2023-05-19T05:01:25.796Z,14.55
2023-05-19T05:03:55.340Z,15.44
2023-05-19T05:06:22.375Z,16.06
2023-05-19T05:08:49.543Z,15.89
2023-05-19T05:11:17.390Z,16.09
2023-05-19T05:13:44.445Z,16.63
2023-05-19T05:16:11.997Z,17.43
2023-05-19T05:18:39.321Z,17.91
2023-05-19T05:21:07.497Z,18.38
2023-05-19T05:23:35.426Z,18.48
2023-05-19T05:26:16.759Z,18.87
2023-05-19T05:28:45.217Z,19.25
2023-05-19T05:31:11.827Z,19.11
2023-05-19T05:33:39.452Z,18.54
2023-05-19T05:36:06.661Z,17.75
2023-05-19T05:38:33.973Z,16.66
2023-05-19T05:41:00.956Z,16.91
2023-05-19T05:43:27.680Z,18.03
2023-05-19T05:45:58.559Z,18.60
2023-05-19T05:48:27.588Z,18.60
2023-05-19T05:50:56.562Z,18.67
2023-05-19T05:53:29.136Z,18.75
2023-05-19T05:55:56.098Z,18.75
2023-05-19T05:58:28.571Z,18.73
2023-05-19T06:00:57.663Z,18.37
2023-05-19T06:03:26.082Z,17.43
2023-05-19T06:05:53.892Z,17.19
2023-05-19T06:08:20.558Z,17.26
2023-05-19T06:10:47.487Z,17.31
2023-05-19T06:13:18.700Z,16.87
2023-05-19T06:15:46.002Z,16.81
2023-05-19T06:18:20.256Z,16.67
2023-05-19T06:20:48.124Z,16.61
2023-05-19T06:23:14.911Z,16.27
2023-05-19T06:25:41.586Z,16.31
2023-05-19T06:28:08.126Z,16.46
2023-05-19T06:30:34.909Z,16.50
2023-05-19T06:33:11.823Z,16.52
2023-05-19T06:35:38.374Z,16.58
2023-05-19T06:38:04.888Z,16.61
2023-05-19T06:40:32.596Z,16.67
2023-05-19T06:42:59.280Z,16.72
2023-05-19T06:45:40.585Z,16.60
2023-05-19T06:48:07.473Z,16.70
2023-05-19T06:50:34.893Z,16.71
2023-05-19T06:53:01.721Z,16.73
2023-05-19T06:55:29.232Z,16.79
2023-05-19T06:57:56.029Z,16.86
2023-05-19T07:00:24.001Z,16.84
2023-05-19T07:02:52.615Z,16.94
2023-05-19T07:05:19.493Z,17.03
2023-05-19T07:07:50.861Z,17.04
2023-05-19T07:10:21.938Z,16.91
2023-05-19T07:12:49.767Z,16.90
2023-05-19T07:15:18.261Z,16.88
2023-05-19T07:17:44.901Z,16.82
2023-05-19T07:20:12.061Z,16.69
2023-05-19T07:22:39.993Z,16.85
2023-05-19T07:25:08.054Z,17.06
2023-05-19T07:27:34.689Z,17.04
2023-05-19T07:30:01.203Z,17.19
2023-05-19T07:32:29.443Z,17.29
2023-05-19T07:34:56.064Z,17.49
2023-05-19T07:37:22.559Z,17.65
2023-05-19T07:39:49.135Z,17.61
2023-05-19T07:42:15.713Z,17.52
2023-05-19T07:44:42.188Z,17.43
2023-05-19T07:47:08.760Z,17.43
2023-05-19T07:49:35.424Z,17.52
2023-05-19T07:52:01.953Z,17.78
2023-05-19T07:54:28.560Z,17.77
2023-05-19T07:56:55.117Z,17.85
2023-05-19T07:59:21.678Z,18.06
2023-05-19T08:01:48.175Z,18.11
2023-05-19T08:04:14.788Z,18.06
2023-05-19T08:06:42.759Z,18.20
2023-05-19T08:09:09.811Z,18.36
2023-05-19T08:11:36.952Z,18.57
2023-05-19T08:14:03.811Z,18.77
2023-05-19T08:16:30.522Z,19.05
2023-05-19T08:18:57.171Z,19.19
2023-05-19T08:21:23.785Z,19.59
2023-05-19T08:23:50.470Z,19.83
2023-05-19T08:26:16.950Z,20.02
2023-05-19T08:28:44.202Z,20.07
2023-05-19T08:31:10.940Z,20.19
2023-05-19T08:33:37.482Z,19.97
2023-05-19T08:36:04.570Z,20.02
2023-05-19T08:38:31.055Z,20.08
2023-05-19T08:40:58.647Z,20.06
2023-05-19T08:43:25.628Z,19.98
2023-05-19T08:45:53.977Z,20.08
2023-05-19T08:48:22.017Z,20.30
2023-05-19T08:51:10.917Z,20.54
2023-05-19T08:53:41.043Z,20.79
2023-05-19T08:56:18.118Z,20.89
2023-05-19T08:58:45.892Z,21.06
2023-05-19T09:01:18.752Z,21.11
2023-05-19T09:03:47.031Z,21.03
2023-05-19T09:06:13.671Z,20.97
2023-05-19T09:08:42.059Z,20.74
2023-05-19T09:11:12.029Z,20.69
2023-05-19T09:13:39.125Z,20.56
2023-05-19T09:16:06.550Z,20.60
2023-05-19T09:18:33.416Z,20.72
2023-05-19T09:21:02.609Z,20.70
2023-05-19T09:23:34.534Z,20.76
2023-05-19T09:26:07.582Z,20.85
2023-05-19T09:28:36.325Z,20.82
2023-05-19T09:31:05.503Z,20.92
2023-05-19T09:33:39.729Z,21.05
2023-05-19T09:36:08.523Z,20.92
2023-05-19T09:38:36.374Z,20.92
2023-05-19T09:41:03.630Z,20.92
2023-05-19T09:43:32.845Z,21.34
2023-05-19T09:46:04.144Z,21.51
2023-05-19T09:48:30.736Z,21.45
2023-05-19T09:50:58.196Z,21.28
2023-05-19T09:53:27.739Z,21.10
2023-05-19T09:56:01.874Z,20.88
2023-05-19T09:58:35.323Z,20.92
2023-05-19T10:01:03.251Z,20.95
2023-05-19T10:03:30.909Z,20.99
2023-05-19T10:05:57.743Z,21.00
2023-05-19T10:08:26.437Z,20.80
2023-05-19T10:10:52.976Z,20.87
2023-05-19T10:13:21.240Z,21.13
2023-05-19T10:15:58.359Z,21.14
2023-05-19T10:18:26.957Z,21.26
2023-05-19T10:20:54.272Z,21.49
2023-05-19T10:23:21.024Z,21.42
2023-05-19T10:25:49.356Z,21.39
2023-05-19T10:28:20.358Z,21.49
2023-05-19T10:30:50.877Z,21.56
2023-05-19T10:33:19.688Z,21.73
2023-05-19T10:36:11.053Z,21.74
2023-05-19T10:38:38.580Z,21.66
2023-05-19T10:41:12.864Z,21.85
2023-05-19T10:44:01.438Z,22.02
2023-05-19T10:46:29.535Z,21.89
2023-05-19T10:48:56.160Z,22.03
2023-05-19T10:51:31.810Z,22.38
2023-05-19T10:53:58.965Z,22.64
2023-05-19T10:56:30.405Z,22.55
2023-05-19T10:58:57.211Z,22.46
2023-05-19T11:01:31.030Z,22.61
2023-05-19T11:03:57.897Z,22.44
2023-05-19T11:06:32.941Z,22.65
2023-05-19T11:09:02.145Z,22.41
2023-05-19T11:11:48.302Z,22.52
2023-05-19T11:14:20.552Z,22.68
2023-05-19T11:16:48.728Z,22.39
2023-05-19T11:19:36.122Z,22.50
2023-05-19T11:22:13.382Z,22.54
2023-05-19T11:24:49.996Z,22.54
2023-05-19T11:27:19.182Z,22.36
2023-05-19T11:29:46.598Z,22.50
2023-05-19T11:32:14.081Z,22.77
2023-05-19T11:34:41.004Z,22.83
2023-05-19T11:37:08.446Z,22.91
2023-05-19T11:39:35.153Z,22.94
2023-05-19T11:42:01.669Z,22.66
2023-05-19T11:44:28.235Z,22.85
2023-05-19T11:46:54.852Z,22.59
2023-05-19T11:49:21.560Z,22.52
2023-05-19T11:51:48.408Z,22.64
2023-05-19T11:54:15.344Z,22.83
2023-05-19T11:56:42.867Z,22.94
2023-05-19T11:59:10.002Z,22.73
2023-05-19T12:01:36.863Z,22.40
2023-05-19T12:04:08.537Z,22.38
2023-05-19T12:06:35.226Z,22.41
2023-05-19T12:09:01.938Z,22.35
2023-05-19T12:11:29.113Z,22.21
2023-05-19T12:13:59.175Z,22.06
2023-05-19T12:16:34.244Z,22.20
2023-05-19T12:19:01.831Z,22.34
2023-05-19T12:21:34.257Z,22.34
2023-05-19T12:24:02.035Z,22.26
2023-05-19T12:26:28.582Z,22.39
2023-05-19T12:28:55.105Z,22.50
2023-05-19T12:31:23.683Z,22.40
2023-05-19T12:33:51.929Z,22.38
2023-05-19T12:36:19.011Z,22.43
2023-05-19T12:38:47.631Z,22.44
2023-05-19T12:41:14.738Z,22.38
2023-05-19T12:43:41.196Z,22.43
2023-05-19T12:46:11.989Z,22.73
2023-05-19T12:48:44.257Z,22.63
2023-05-19T12:51:11.488Z,22.53
2023-05-19T12:53:38.665Z,22.56
2023-05-19T12:56:15.451Z,22.38
2023-05-19T12:58:42.491Z,22.35
2023-05-19T13:01:16.596Z,22.47
2023-05-19T13:03:43.819Z,22.48
2023-05-19T13:06:10.666Z,22.29
2023-05-19T13:08:39.646Z,22.24
2023-05-19T13:11:06.141Z,22.12
2023-05-19T13:13:32.822Z,22.01
2023-05-19T13:15:59.462Z,21.88
2023-05-19T13:18:27.561Z,21.92
2023-05-19T13:20:54.667Z,21.82
2023-05-19T13:23:21.182Z,21.76
2023-05-19T13:25:47.762Z,21.71
2023-05-19T13:28:14.377Z,21.57
2023-05-19T13:30:41.824Z,21.75
2023-05-19T13:33:08.699Z,21.77
2023-05-19T13:35:38.291Z,21.72
2023-05-19T13:38:11.867Z,21.66
2023-05-19T13:40:39.437Z,21.92
2023-05-19T13:43:06.221Z,21.92
2023-05-19T13:45:32.883Z,21.88
2023-05-19T13:47:59.565Z,21.82
2023-05-19T13:50:26.436Z,21.56
2023-05-19T13:52:53.694Z,21.46
2023-05-19T13:55:20.480Z,21.40
2023-05-19T13:57:47.054Z,21.22
2023-05-19T14:00:14.417Z,21.26
2023-05-19T14:02:41.148Z,21.28
2023-05-19T14:05:08.463Z,21.12
2023-05-19T14:07:35.706Z,20.80
2023-05-19T14:10:05.490Z,20.67
2023-05-19T14:12:40.409Z,20.73
2023-05-19T14:15:14.106Z,20.66
2023-05-19T14:17:40.823Z,20.76
2023-05-19T14:20:08.387Z,20.71
2023-05-19T14:22:35.335Z,20.76
2023-05-19T14:25:02.153Z,20.64
2023-05-19T14:27:28.616Z,20.51
2023-05-19T14:29:55.237Z,20.68
2023-05-19T14:32:22.366Z,20.80
2023-05-19T14:34:52.663Z,20.85
2023-05-19T14:37:20.163Z,20.76
2023-05-19T14:39:46.670Z,20.55
2023-05-19T14:42:13.396Z,20.66
2023-05-19T14:44:39.919Z,20.67
2023-05-19T14:49:33.761Z,20.79
2023-05-19T14:52:00.511Z,20.82
2023-05-19T14:54:26.994Z,20.81
2023-05-19T14:56:53.510Z,20.81
2023-05-19T14:59:21.498Z,20.76
2023-05-19T15:01:48.088Z,20.85
2023-05-19T15:04:14.824Z,20.88
2023-05-19T15:06:41.575Z,20.92
2023-05-19T15:09:08.160Z,20.97
2023-05-19T15:11:34.671Z,20.94
2023-05-19T15:14:01.220Z,20.96
2023-05-19T15:16:27.810Z,20.93
2023-05-19T15:18:54.756Z,20.93
2023-05-19T15:21:21.326Z,20.96
2023-05-19T15:23:47.777Z,20.68
2023-05-19T15:26:14.253Z,20.68
2023-05-19T15:28:40.973Z,20.67
2023-05-19T15:31:07.549Z,20.73
2023-05-19T15:33:34.168Z,20.54
2023-05-19T15:36:00.646Z,20.67
2023-05-19T15:38:28.494Z,20.39
2023-05-19T15:40:56.460Z,20.15
2023-05-19T15:43:22.925Z,20.31
2023-05-19T15:45:52.060Z,20.38
2023-05-19T15:48:18.776Z,20.37
2023-05-19T15:50:45.834Z,20.39
2023-05-19T15:53:12.430Z,20.45
2023-05-19T15:55:38.886Z,20.50
2023-05-19T15:58:05.757Z,20.49
2023-05-19T16:00:32.638Z,20.56
2023-05-19T16:02:59.530Z,20.54
2023-05-19T16:05:26.279Z,20.67
2023-05-19T16:07:52.732Z,20.70
2023-05-19T16:10:19.316Z,20.40
2023-05-19T16:12:46.018Z,20.27
2023-05-19T16:15:12.548Z,20.16
2023-05-19T16:17:39.114Z,20.10
2023-05-19T16:20:06.471Z,20.09
2023-05-19T16:22:33.060Z,20.13
2023-05-19T16:24:59.541Z,20.21
2023-05-19T16:27:26.170Z,20.31
2023-05-19T16:29:53.154Z,20.22
2023-05-19T16:32:19.680Z,20.19
2023-05-19T16:34:46.405Z,20.27
2023-05-19T16:37:12.907Z,20.19
2023-05-19T16:39:40.153Z,20.14
2023-05-19T16:42:06.803Z,20.25
2023-05-19T16:44:33.279Z,20.18
2023-05-19T16:46:59.774Z,20.03
2023-05-19T16:49:26.275Z,19.91
2023-05-19T16:51:54.056Z,19.73
2023-05-19T16:54:21.240Z,19.70
2023-05-19T16:56:47.875Z,19.74
2023-05-19T16:59:14.385Z,19.81
2023-05-19T17:01:40.939Z,19.96
2023-05-19T17:04:07.517Z,20.05
2023-05-19T17:06:34.186Z,20.17
2023-05-19T17:09:00.818Z,20.16
2023-05-19T17:11:27.607Z,20.12
2023-05-19T17:13:54.198Z,20.02
2023-05-19T17:16:21.256Z,19.80
2023-05-19T17:18:48.099Z,19.62
2023-05-19T17:21:14.762Z,19.53
2023-05-19T17:23:41.514Z,19.49
2023-05-19T17:26:08.761Z,19.46
2023-05-19T17:28:35.314Z,19.55
2023-05-19T17:31:01.790Z,19.65
2023-05-19T17:33:28.288Z,19.70
2023-05-19T17:35:55.236Z,19.68
2023-05-19T17:38:21.749Z,19.63
2023-05-19T17:40:48.388Z,19.58
2023-05-19T17:43:14.934Z,19.56
2023-05-19T17:45:41.454Z,19.49
2023-05-19T17:48:08.009Z,19.42
2023-05-19T17:50:34.681Z,19.32
2023-05-19T17:53:01.621Z,19.26
2023-05-19T17:55:30.315Z,19.22
2023-05-19T17:57:57.570Z,19.23
2023-05-19T18:00:25.241Z,19.22
2023-05-19T18:02:52.461Z,19.16
2023-05-19T18:05:19.775Z,19.06
2023-05-19T18:07:46.328Z,18.97
2023-05-19T18:10:15.408Z,18.94
2023-05-19T18:12:42.928Z,18.85
2023-05-19T18:15:09.839Z,18.77
2023-05-19T18:17:36.364Z,18.68
2023-05-19T18:20:03.234Z,18.59
2023-05-19T18:22:29.974Z,18.50
2023-05-19T18:24:57.628Z,18.41
2023-05-19T18:27:24.248Z,18.33
2023-05-19T18:29:50.928Z,18.25
2023-05-19T18:32:17.940Z,18.17
2023-05-19T18:34:44.497Z,18.09
2023-05-19T18:37:10.998Z,18.03
2023-05-19T18:39:37.503Z,17.98
2023-05-19T18:42:04.364Z,17.94
2023-05-19T18:44:31.070Z,17.86
2023-05-19T18:46:57.616Z,17.79
2023-05-19T18:49:24.953Z,17.76
2023-05-19T18:51:51.823Z,17.68
2023-05-19T18:54:19.402Z,17.61
2023-05-19T18:56:45.915Z,17.56
2023-05-19T18:59:12.456Z,17.51
2023-05-19T19:01:39.068Z,17.46
2023-05-19T19:04:05.844Z,17.39
2023-05-19T19:06:32.484Z,17.31
2023-05-19T19:08:59.067Z,17.25
2023-05-19T19:11:26.275Z,17.17
2023-05-19T19:13:55.400Z,17.11
2023-05-19T19:16:22.463Z,17.06
2023-05-19T19:18:49.116Z,16.98
2023-05-19T19:21:15.662Z,16.94
2023-05-19T19:23:42.166Z,16.88
2023-05-19T19:26:09.499Z,16.84
2023-05-19T19:28:36.373Z,16.78
2023-05-19T19:31:03.045Z,16.71
2023-05-19T19:33:29.583Z,16.64
2023-05-19T19:35:56.352Z,16.58
2023-05-19T19:38:22.854Z,16.52
2023-05-19T19:40:51.521Z,16.46
2023-05-19T19:43:18.274Z,16.40
2023-05-19T19:45:44.873Z,16.33
2023-05-19T19:48:12.191Z,16.22
2023-05-19T19:50:38.753Z,16.18
2023-05-19T19:53:05.533Z,16.12
2023-05-19T19:55:32.093Z,16.01
2023-05-19T19:57:58.649Z,15.93
2023-05-19T20:00:25.160Z,15.84
2023-05-19T20:03:04.225Z,15.80
2023-05-19T20:05:32.354Z,15.71
2023-05-19T20:07:58.995Z,15.66
2023-05-19T20:10:25.492Z,15.60
2023-05-19T20:12:52.267Z,15.55
2023-05-19T20:15:19.173Z,15.50
2023-05-19T20:17:45.743Z,15.46
2023-05-19T20:20:12.712Z,15.39
2023-05-19T20:22:39.815Z,15.34
2023-05-19T20:25:06.930Z,15.26
2023-05-19T20:27:33.505Z,15.20
2023-05-19T20:30:00.077Z,15.14
2023-05-19T20:32:26.689Z,15.09
2023-05-19T20:34:53.249Z,15.04
2023-05-19T20:37:21.414Z,15.01
2023-05-19T20:39:47.995Z,14.96
2023-05-19T20:42:14.560Z,14.93
2023-05-19T20:44:41.452Z,14.87
2023-05-19T20:47:08.363Z,14.83
2023-05-19T20:49:35.183Z,14.79
2023-05-19T20:52:02.191Z,14.75
2023-05-19T20:54:28.755Z,14.69
2023-05-19T20:56:55.420Z,14.66
2023-05-19T20:59:22.007Z,14.60
2023-05-19T21:01:48.685Z,14.54
2023-05-19T21:04:15.399Z,14.51
2023-05-19T21:06:41.962Z,14.44
2023-05-19T21:09:08.729Z,14.39
2023-05-19T21:11:35.450Z,14.34
2023-05-19T21:14:04.078Z,14.31
2023-05-19T21:16:31.327Z,14.28
2023-05-19T21:18:58.077Z,14.25
2023-05-19T21:21:24.794Z,14.21
2023-05-19T21:23:51.581Z,14.15
2023-05-19T21:26:18.097Z,14.11
2023-05-19T21:28:44.729Z,14.06
2023-05-19T21:31:11.216Z,14.03
2023-05-19T21:33:37.764Z,13.98
2023-05-19T21:36:04.533Z,13.93
2023-05-19T21:38:31.120Z,13.90
2023-05-19T21:40:57.763Z,13.85
2023-05-19T21:43:24.478Z,13.81
2023-05-19T21:45:50.962Z,13.76
2023-05-19T21:48:17.749Z,13.73
2023-05-19T21:50:44.318Z,13.70
2023-05-19T21:53:10.853Z,13.66
2023-05-19T21:55:37.416Z,13.62
2023-05-19T21:58:04.002Z,13.61
2023-05-19T22:00:30.541Z,13.57
2023-05-19T22:02:57.160Z,13.52
2023-05-19T22:05:23.655Z,13.48
2023-05-19T22:07:50.119Z,13.46
2023-05-19T22:10:17.322Z,13.42
2023-05-19T22:12:44.552Z,13.38
2023-05-19T22:15:13.518Z,13.35
2023-05-19T22:17:40.203Z,13.32
2023-05-19T22:20:07.226Z,13.29
2023-05-19T22:22:34.065Z,13.26
2023-05-19T22:25:00.676Z,13.21
2023-05-19T22:27:27.191Z,13.18
2023-05-19T22:29:53.652Z,13.13
2023-05-19T22:32:20.212Z,13.10
2023-05-19T22:34:46.804Z,13.07
2023-05-19T22:37:13.621Z,13.02
2023-05-19T22:39:40.138Z,12.97
2023-05-19T22:42:06.707Z,12.94
2023-05-19T22:44:33.162Z,12.90
2023-05-19T22:46:59.720Z,12.87
2023-05-19T22:49:27.372Z,12.82
2023-05-19T22:51:53.921Z,12.77
2023-05-19T22:54:20.606Z,12.74
2023-05-19T22:56:48.695Z,12.69
2023-05-19T22:59:17.710Z,12.61
2023-05-19T23:01:46.416Z,12.57
2023-05-19T23:04:13.816Z,12.54
2023-05-19T23:06:40.446Z,12.47
2023-05-19T23:09:06.969Z,12.42
2023-05-19T23:11:34.257Z,12.39
2023-05-19T23:14:00.796Z,12.34
2023-05-19T23:16:27.380Z,12.31
2023-05-19T23:18:53.966Z,12.28
2023-05-19T23:21:20.547Z,12.26
2023-05-19T23:23:47.041Z,12.21
2023-05-19T23:26:13.798Z,12.16
2023-05-19T23:28:42.166Z,12.12
2023-05-19T23:31:09.284Z,12.07
2023-05-19T23:33:35.853Z,12.03
2023-05-19T23:36:07.617Z,12.00
2023-05-19T23:38:34.284Z,11.97
2023-05-19T23:41:00.910Z,11.92
2023-05-19T23:43:27.494Z,11.88
2023-05-19T23:45:54.052Z,11.82
2023-05-19T23:48:20.895Z,11.78
2023-05-19T23:50:47.456Z,11.75
2023-05-19T23:53:14.438Z,11.70
2023-05-19T23:55:41.065Z,11.68
2023-05-19T23:58:07.566Z,11.65
